Time;durP1;ratioP1;P1;durP2;ratioP2;P2;SDS_P1;SDS_P2;PMS_P1;PMS_P2;Temp;Humidity;BMP_temperature;BMP_pressure;BME280_temperature;BME280_humidity;BME280_pressure;Samples;Min_cycle;Max_cycle;Signal;HPM_P1;HPM_P2
2022/09/10 00:01:59;;;;;;;;;;;;;;;24.13;63.57;99125.16;7313954;19;129057;-38
2022/09/10 00:04:24;;;;;;;;;;;;;;;24.14;63.40;99127.59;7315013;19;130178;-39
2022/09/10 00:06:49;;;;;;;;;;;;;;;24.13;63.41;99127.78;7314857;19;129115;-39
2022/09/10 00:09:15;;;;;;;;;;;;;;;24.03;63.58;99109.53;7311728;19;129745;-39
2022/09/10 00:11:40;;;;;;;;;;;;;;;24.13;63.50;99125.94;7314042;19;130252;-39
2022/09/10 00:14:07;;;;;;;;;;;;;;;24.14;63.51;99126.78;7315544;19;130775;-40
2022/09/10 00:16:33;;;;;;;;;;;;;;;24.13;64.13;99118.06;7313343;19;129880;-41
2022/09/10 00:19:00;;;;;;;;;;;;;;;24.13;63.80;99118.06;7311413;19;129502;-40
2022/09/10 00:21:25;;;;;;;;;;;;;;;24.14;63.25;99117.09;7313290;19;131017;-40
2022/09/10 00:23:50;;;;;;;;;;;;;;;24.13;63.96;99115.44;7313054;19;129831;-40
2022/09/10 00:26:20;;;;;;;;;;;;;;;24.12;63.95;99119.06;7311838;19;129374;-37
2022/09/10 00:28:47;;;;;;;;;;;;;;;24.14;63.56;99111.00;7312372;19;130234;-38
2022/09/10 00:31:13;;;;;;;;;;;;;;;24.11;63.31;99112.16;7312830;19;130335;-41
2022/09/10 00:33:38;;;;;;;;;;;;;;;24.07;63.60;99095.09;7312974;19;129223;-39
2022/09/10 00:36:12;;;;;;;;;;;;;;;24.15;63.53;99117.91;7311468;19;129342;-38
2022/09/10 00:38:38;;;;;;;;;;;;;;;24.14;63.89;99114.47;7308412;19;129545;-38
2022/09/10 00:41:04;;;;;;;;;;;;;;;24.13;63.17;99112.81;7311578;19;130633;-35
2022/09/10 00:43:44;;;;;;;;;;;;;;;24.12;63.43;99113.81;7312764;19;129584;-39
2022/09/10 00:46:10;;;;;;;;;;;;;;;24.12;64.05;99116.44;7312792;19;129664;-38
2022/09/10 00:48:36;;;;;;;;;;;;;;;24.12;63.57;99111.19;7311244;19;129050;-40
2022/09/10 00:51:03;;;;;;;;;;;;;;;24.12;63.41;99113.81;7311188;19;129313;-38
2022/09/10 00:53:29;;;;;;;;;;;;;;;24.13;63.78;99112.81;7311157;19;130811;-39
2022/09/10 00:55:56;;;;;;;;;;;;;;;24.12;63.24;99108.56;7312876;19;129726;-41
2022/09/10 00:58:22;;;;;;;;;;;;;;;24.13;63.99;99117.25;7310830;19;129153;-38
2022/09/10 01:00:48;;;;;;;;;;;;;;;24.03;63.30;99093.78;7313034;19;129937;-40
2022/09/10 01:03:14;;;;;;;;;;;;;;;24.13;63.39;99118.06;7311727;19;130156;-36
2022/09/10 01:05:41;;;;;;;;;;;;;;;24.14;63.24;99124.97;7313089;19;129126;-40
2022/09/10 01:08:15;;;;;;;;;;;;;;;24.13;63.71;99120.69;7308313;19;130180;-40
2022/09/10 01:11:01;;;;;;;;;;;;;;;24.15;63.12;99118.72;7310307;19;130166;-40
2022/09/10 01:13:32;;;;;;;;;;;;;;;24.14;63.77;99119.72;7309872;19;129570;-39
2022/09/10 01:16:16;;;;;;;;;;;;;;;24.14;63.48;99117.09;7309602;19;129152;-39
2022/09/10 01:18:41;;;;;;;;;;;;;;;24.04;63.69;99105.13;7310763;19;129249;-39
2022/09/10 01:21:12;;;;;;;;;;;;;;;24.14;63.74;99116.28;7311978;19;129714;-39
2022/09/10 01:23:40;;;;;;;;;;;;;;;24.13;63.20;99115.44;7309936;19;131398;-38
2022/09/10 01:26:09;;;;;;;;;;;;;;;24.13;63.53;99118.06;7310005;19;129246;-39
2022/09/10 01:28:43;;;;;;;;;;;;;;;24.11;63.48;99112.16;7309904;19;131133;-41
2022/09/10 01:31:12;;;;;;;;;;;;;;;24.05;63.75;99102.31;7312071;19;130249;-37
2022/09/10 01:33:44;;;;;;;;;;;;;;;24.12;63.32;99113.81;7310799;19;129838;-37
2022/09/10 01:36:22;;;;;;;;;;;;;;;24.13;63.18;99115.44;7311605;19;128957;-38
2022/09/10 01:38:49;;;;;;;;;;;;;;;24.11;63.46;99114.78;7308537;19;129209;-37
2022/09/10 01:41:14;;;;;;;;;;;;;;;24.12;63.80;99116.44;7309111;19;129321;-40
2022/09/10 01:43:40;;;;;;;;;;;;;;;24.12;63.14;99119.06;7309550;19;129488;-38
2022/09/10 01:46:12;;;;;;;;;;;;;;;24.13;63.87;99119.88;7310532;19;130030;-38
2022/09/10 01:48:55;;;;;;;;;;;;;;;24.11;62.76;99112.16;7314056;19;129177;-39
2022/09/10 01:51:20;;;;;;;;;;;;;;;24.08;63.26;99106.44;7317934;19;129247;-40
2022/09/10 01:53:48;;;;;;;;;;;;;;;24.12;63.66;99116.44;7316477;19;129376;-41
2022/09/10 01:56:24;;;;;;;;;;;;;;;24.13;63.36;99115.44;7317473;19;129773;-38
2022/09/10 01:58:53;;;;;;;;;;;;;;;24.12;63.35;99116.44;7316345;19;129050;-40
2022/09/10 02:01:31;;;;;;;;;;;;;;;24.12;63.51;99113.81;7318338;19;130476;-40
2022/09/10 02:04:00;;;;;;;;;;;;;;;24.12;63.40;99107.72;7316563;19;130343;-41
2022/09/10 02:06:28;;;;;;;;;;;;;;;24.13;63.73;99104.94;7316828;19;129258;-38
2022/09/10 02:08:55;;;;;;;;;;;;;;;24.13;63.44;99106.75;7315501;19;129293;-40
2022/09/10 02:11:20;;;;;;;;;;;;;;;24.08;63.35;99101.97;7318119;19;130908;-39
2022/09/10 02:13:46;;;;;;;;;;;;;;;24.11;63.82;99112.16;7314400;19;132606;-35
2022/09/10 02:16:14;;;;;;;;;;;;;;;24.12;63.46;99118.22;7317758;19;129370;-39
2022/09/10 02:18:41;;;;;;;;;;;;;;;24.12;63.41;99116.44;7315248;19;129157;-37
2022/09/10 02:21:07;;;;;;;;;;;;;;;24.12;62.82;99113.81;7317458;19;129192;-40
2022/09/10 02:23:36;;;;;;;;;;;;;;;24.13;63.56;99114.63;7315864;19;130437;-39
2022/09/10 02:26:01;;;;;;;;;;;;;;;24.13;63.37;99125.16;7316500;19;130414;-40
2022/09/10 02:28:26;;;;;;;;;;;;;;;24.12;63.68;99121.69;7314137;19;130151;-38
2022/09/10 02:30:52;;;;;;;;;;;;;;;24.11;63.05;99112.16;7316575;19;129696;-39
2022/09/10 02:33:17;;;;;;;;;;;;;;;24.12;62.90;99116.44;7316015;19;129877;-40
2022/09/10 02:35:42;;;;;;;;;;;;;;;24.12;63.44;99120.84;7316163;19;128815;-37
2022/09/10 02:38:08;;;;;;;;;;;;;;;24.12;63.56;99108.56;7316749;19;129559;-39
2022/09/10 02:40:33;;;;;;;;;;;;;;;24.12;63.71;99112.97;7316458;19;130759;-38
2022/09/10 02:42:58;;;;;;;;;;;;;;;24.10;63.78;99110.53;7316161;19;130215;-40
2022/09/10 02:45:24;;;;;;;;;;;;;;;24.11;63.08;99106.09;7316035;19;129373;-40
2022/09/10 02:47:49;;;;;;;;;;;;;;;24.12;63.35;99113.81;7315587;19;129153;-39
2022/09/10 02:50:15;;;;;;;;;;;;;;;24.11;63.41;99109.53;7315906;19;130772;-40
2022/09/10 02:52:40;;;;;;;;;;;;;;;24.10;63.83;99107.91;7315281;19;129278;-41
2022/09/10 02:55:06;;;;;;;;;;;;;;;24.13;63.06;99109.38;7315199;19;129427;-40
2022/09/10 02:57:31;;;;;;;;;;;;;;;24.11;63.59;99112.16;7315251;19;129090;-38
2022/09/10 02:59:56;;;;;;;;;;;;;;;24.08;63.31;99107.25;7315599;19;130334;-39
2022/09/10 03:02:22;;;;;;;;;;;;;;;24.12;63.07;99111.19;7315550;19;129546;-36
2022/09/10 03:04:47;;;;;;;;;;;;;;;24.13;63.62;99104.94;7315386;19;129313;-37
2022/09/10 03:07:15;;;;;;;;;;;;;;;24.13;62.97;99114.63;7316007;19;129209;-40
2022/09/10 03:09:41;;;;;;;;;;;;;;;24.06;62.96;99101.34;7312158;19;129495;-40
2022/09/10 03:12:06;;;;;;;;;;;;;;;24.12;63.62;99113.81;7316245;19;131526;-40
2022/09/10 03:14:32;;;;;;;;;;;;;;;24.11;63.42;99112.16;7314347;19;129124;-38
2022/09/10 03:16:57;;;;;;;;;;;;;;;24.11;63.24;99101.66;7315523;19;129824;-40
2022/09/10 03:19:23;;;;;;;;;;;;;;;24.12;63.00;99108.56;7312032;19;129339;-40
2022/09/10 03:21:48;;;;;;;;;;;;;;;24.11;63.55;99106.91;7312410;19;129754;-38
2022/09/10 03:24:13;;;;;;;;;;;;;;;24.11;63.31;99109.53;7314998;19;129055;-38
2022/09/10 03:26:38;;;;;;;;;;;;;;;24.10;63.01;99107.91;7316312;19;129556;-39
2022/09/10 03:29:04;;;;;;;;;;;;;;;24.12;63.20;99108.56;7312450;19;129259;-38
2022/09/10 03:31:29;;;;;;;;;;;;;;;24.12;63.22;99102.47;7313471;19;129199;-40
2022/09/10 03:33:56;;;;;;;;;;;;;;;24.02;62.87;99081.66;7314877;19;129465;-39
2022/09/10 03:36:21;;;;;;;;;;;;;;;24.12;63.05;99097.22;7314524;19;129126;-39
2022/09/10 03:38:47;;;;;;;;;;;;;;;24.12;63.02;99098.06;7313366;19;130964;-40
2022/09/10 03:41:12;;;;;;;;;;;;;;;24.12;62.82;99098.06;7314416;19;129493;-41
2022/09/10 03:43:37;;;;;;;;;;;;;;;24.11;62.91;99106.91;7314267;19;129307;-39
2022/09/10 03:46:04;;;;;;;;;;;;;;;24.10;63.27;99110.53;7314395;19;128996;-40
2022/09/10 03:48:29;;;;;;;;;;;;;;;24.10;63.33;99105.28;7312935;19;130988;-40
2022/09/10 03:50:55;;;;;;;;;;;;;;;24.11;63.39;99106.91;7314437;19;129645;-38
2022/09/10 03:53:20;;;;;;;;;;;;;;;24.11;63.55;99104.28;7313934;19;129899;-39
2022/09/10 03:55:47;;;;;;;;;;;;;;;24.10;62.96;99110.53;7314226;19;129279;-41
2022/09/10 03:58:13;;;;;;;;;;;;;;;24.11;62.78;99106.91;7311170;19;129195;-38
2022/09/10 04:00:38;;;;;;;;;;;;;;;24.11;62.86;99101.66;7313193;19;129355;-40
2022/09/10 04:03:04;;;;;;;;;;;;;;;24.02;63.19;99097.41;7313708;19;129072;-40
2022/09/10 04:05:29;;;;;;;;;;;;;;;24.02;63.34;99094.78;7312994;19;129551;-40
2022/09/10 04:07:57;;;;;;;;;;;;;;;24.11;63.07;99112.16;7312267;19;129391;-41
2022/09/10 04:10:25;;;;;;;;;;;;;;;24.11;63.38;99117.41;7310174;19;131342;-39
2022/09/10 04:12:53;;;;;;;;;;;;;;;24.02;62.86;99100.03;7315200;19;128897;-41
2022/09/10 04:15:19;;;;;;;;;;;;;;;24.11;63.19;99116.59;7313767;19;130182;-40
2022/09/10 04:17:45;;;;;;;;;;;;;;;24.10;63.24;99115.78;7310346;19;131392;-40
2022/09/10 04:20:10;;;;;;;;;;;;;;;24.09;63.29;99116.78;7314410;19;129669;-40
2022/09/10 04:22:36;;;;;;;;;;;;;;;24.12;63.15;99115.59;7313609;19;130108;-37
2022/09/10 04:25:01;;;;;;;;;;;;;;;24.10;63.45;99115.78;7312256;19;129740;-38
2022/09/10 04:27:27;;;;;;;;;;;;;;;24.10;63.64;99110.53;7311652;19;130709;-40
2022/09/10 04:29:52;;;;;;;;;;;;;;;24.10;63.51;99107.91;7314813;19;130255;-39
2022/09/10 04:32:17;;;;;;;;;;;;;;;24.11;62.91;99109.53;7311608;19;129304;-40
2022/09/10 04:34:43;;;;;;;;;;;;;;;24.10;62.83;99115.78;7312407;19;129214;-38
2022/09/10 04:37:08;;;;;;;;;;;;;;;24.11;63.14;99112.16;7313812;19;130911;-39
2022/09/10 04:39:33;;;;;;;;;;;;;;;24.12;63.05;99113.81;7311586;19;131447;-40
2022/09/10 04:41:59;;;;;;;;;;;;;;;24.12;63.14;99119.06;7314577;19;129221;-38
2022/09/10 04:44:24;;;;;;;;;;;;;;;24.11;63.47;99129.75;7313465;19;129071;-38
2022/09/10 04:46:49;;;;;;;;;;;;;;;24.11;63.44;99120.03;7312231;19;131106;-40
2022/09/10 04:49:14;;;;;;;;;;;;;;;24.11;62.86;99127.91;7311397;19;129624;-39
2022/09/10 04:51:40;;;;;;;;;;;;;;;24.10;63.06;99131.53;7313475;19;129204;-40
2022/09/10 04:54:05;;;;;;;;;;;;;;;24.10;63.50;99136.78;7312986;19;129606;-39
2022/09/10 04:56:30;;;;;;;;;;;;;;;24.10;63.39;99131.53;7311771;19;130246;-38
2022/09/10 04:58:56;;;;;;;;;;;;;;;24.10;63.07;99135.97;7310892;19;130786;-39
2022/09/10 05:01:22;;;;;;;;;;;;;;;24.09;63.00;99131.69;7310879;19;129239;-38
2022/09/10 05:03:47;;;;;;;;;;;;;;;24.09;63.18;99140.41;7309223;19;129608;-39
2022/09/10 05:06:12;;;;;;;;;;;;;;;24.08;62.55;99138.75;7312915;19;130075;-40
2022/09/10 05:08:37;;;;;;;;;;;;;;;24.11;63.52;99146.28;7306910;19;129922;-39
2022/09/10 05:11:03;;;;;;;;;;;;;;;24.10;62.73;99147.28;7312412;19;129380;-39
2022/09/10 05:13:29;;;;;;;;;;;;;;;24.11;63.28;99148.91;7310099;19;130154;-40
2022/09/10 05:15:56;;;;;;;;;;;;;;;24.10;63.02;99146.47;7309497;19;130444;-38
2022/09/10 05:18:22;;;;;;;;;;;;;;;24.11;63.38;99148.91;7310982;19;130630;-37
2022/09/10 05:20:47;;;;;;;;;;;;;;;24.10;63.29;99131.53;7312112;19;129064;-40
2022/09/10 05:23:13;;;;;;;;;;;;;;;24.10;63.37;99136.78;7318190;19;129727;-38
2022/09/10 05:25:38;;;;;;;;;;;;;;;24.10;63.41;99142.03;7319835;19;130408;-38
2022/09/10 05:28:04;;;;;;;;;;;;;;;24.01;63.01;99122.03;7318485;19;130443;-38
2022/09/10 05:30:31;;;;;;;;;;;;;;;24.02;63.28;99118.41;7318947;19;130234;-37
2022/09/10 05:32:57;;;;;;;;;;;;;;;24.09;62.86;99132.53;7320186;19;129216;-38
2022/09/10 05:35:22;;;;;;;;;;;;;;;24.12;62.64;99132.19;7318652;19;129062;-39
2022/09/10 05:37:48;;;;;;;;;;;;;;;24.10;63.26;99128.91;7317749;19;129436;-38
2022/09/10 05:40:13;;;;;;;;;;;;;;;24.09;62.71;99135.16;7320346;19;129056;-40
2022/09/10 05:42:38;;;;;;;;;;;;;;;24.09;62.68;99135.16;7316626;19;130026;-37
2022/09/10 05:45:04;;;;;;;;;;;;;;;24.11;63.43;99135.00;7318226;19;129120;-39
2022/09/10 05:47:29;;;;;;;;;;;;;;;24.01;63.38;99124.66;7317022;19;130510;-39
2022/09/10 05:49:55;;;;;;;;;;;;;;;24.10;63.29;99134.16;7316901;19;128972;-39
2022/09/10 05:52:20;;;;;;;;;;;;;;;24.10;63.03;99144.66;7316124;19;130199;-38
2022/09/10 05:54:46;;;;;;;;;;;;;;;24.11;63.34;99140.25;7314101;19;131112;-39
2022/09/10 05:57:11;;;;;;;;;;;;;;;24.00;63.29;99136.16;7318261;19;130140;-38
2022/09/10 05:59:36;;;;;;;;;;;;;;;24.10;62.61;99142.03;7311971;19;129407;-39
2022/09/10 06:02:02;;;;;;;;;;;;;;;24.10;62.70;99142.03;7318566;19;129367;-39
2022/09/10 06:04:27;;;;;;;;;;;;;;;23.99;62.64;99129.25;7317808;19;131128;-40
2022/09/10 06:06:53;;;;;;;;;;;;;;;24.07;62.81;99139.75;7318219;19;129595;-39
2022/09/10 06:09:18;;;;;;;;;;;;;;;24.10;63.17;99147.28;7315537;19;130869;-39
2022/09/10 06:11:43;;;;;;;;;;;;;;;24.10;63.15;99147.28;7316424;19;130901;-38
2022/09/10 06:14:08;;;;;;;;;;;;;;;24.04;62.56;99136.63;7318717;19;130701;-38
2022/09/10 06:16:34;;;;;;;;;;;;;;;24.10;62.83;99151.72;7317202;19;129595;-38
2022/09/10 06:18:59;;;;;;;;;;;;;;;24.10;63.20;99156.97;7315687;19;129652;-39
2022/09/10 06:21:28;;;;;;;;;;;;;;;24.11;62.56;99154.19;7320121;19;129869;-39
2022/09/10 06:23:53;;;;;;;;;;;;;;;24.09;63.27;99150.91;7316008;19;130024;-39
2022/09/10 06:26:19;;;;;;;;;;;;;;;24.10;62.67;99151.72;7317550;19;129520;-40
2022/09/10 06:28:44;;;;;;;;;;;;;;;24.10;63.27;99154.34;7315845;19;129253;-39
2022/09/10 06:31:16;;;;;;;;;;;;;;;24.09;63.18;99150.91;7317143;19;129349;-40
2022/09/10 06:33:45;;;;;;;;;;;;;;;24.09;62.74;99158.78;7314038;19;130112;-37
2022/09/10 06:36:11;;;;;;;;;;;;;;;24.10;62.66;99152.53;7318737;19;130998;-40
2022/09/10 06:38:37;;;;;;;;;;;;;;;24.10;63.28;99162.22;7314212;19;129961;-40
2022/09/10 06:41:04;;;;;;;;;;;;;;;24.09;62.79;99155.34;7317436;19;131002;-39
2022/09/10 06:43:35;;;;;;;;;;;;;;;24.09;62.99;99161.44;7315816;19;130215;-38
2022/09/10 06:46:04;;;;;;;;;;;;;;;24.08;62.97;99162.41;7317507;19;130322;-40
2022/09/10 06:48:30;;;;;;;;;;;;;;;24.09;62.71;99160.59;7314772;19;129939;-40
2022/09/10 06:51:00;;;;;;;;;;;;;;;24.08;63.09;99156.34;7317694;19;128863;-39
2022/09/10 06:53:27;;;;;;;;;;;;;;;24.09;63.31;99147.47;7315540;19;130973;-38
2022/09/10 06:55:53;;;;;;;;;;;;;;;24.07;62.95;99150.25;7317566;19;130363;-40
2022/09/10 06:58:19;;;;;;;;;;;;;;;24.08;62.64;99149.25;7315209;19;129271;-39
2022/09/10 07:00:46;;;;;;;;;;;;;;;24.01;62.94;99131.72;7315608;19;129595;-36
2022/09/10 07:03:12;;;;;;;;;;;;;;;24.07;63.25;99145.00;7315683;19;129687;-41
2022/09/10 07:05:37;;;;;;;;;;;;;;;24.08;62.97;99148.47;7316706;19;129243;-41
2022/09/10 07:08:04;;;;;;;;;;;;;;;24.07;63.33;99146.81;7315563;19;129166;-40
2022/09/10 07:10:30;;;;;;;;;;;;;;;24.01;63.25;99127.28;7315011;19;129177;-39
2022/09/10 07:12:55;;;;;;;;;;;;;;;24.18;62.37;99142.03;7315448;19;129131;-40
2022/09/10 07:15:20;;;;;;;;;;;;;;;24.13;61.89;99125.94;7313745;19;129594;-40
2022/09/10 07:17:46;;;;;;;;;;;;;;;24.10;61.46;99146.47;7315729;19;130223;-40
2022/09/10 07:20:11;;;;;;;;;;;;;;;24.15;61.83;99145.00;7316767;19;128906;-41
2022/09/10 07:22:38;;;;;;;;;;;;;;;24.19;61.37;99141.06;7316004;19;129895;-40
2022/09/10 07:25:03;;;;;;;;;;;;;;;24.22;61.80;99135.47;7315316;19;130299;-40
2022/09/10 07:27:28;;;;;;;;;;;;;;;24.16;60.86;99140.56;7315543;19;130753;-38
2022/09/10 07:29:53;;;;;;;;;;;;;;;24.13;60.61;99143.53;7316931;19;128980;-41
2022/09/10 07:32:19;;;;;;;;;;;;;;;24.22;60.94;99143.34;7312742;19;129945;-39
2022/09/10 07:34:46;;;;;;;;;;;;;;;24.18;60.47;99144.66;7315942;19;129167;-40
2022/09/10 07:37:14;;;;;;;;;;;;;;;24.23;60.47;99144.13;7280560;19;129411;-35
2022/09/10 07:39:39;;;;;;;;;;;;;;;24.23;60.71;99142.34;7287858;19;129369;-37
2022/09/10 07:42:05;;;;;;;;;;;;;;;24.30;60.04;99145.13;7309413;19;130532;-41
2022/09/10 07:44:30;;;;;;;;;;;;;;;24.26;59.70;99142.00;7310145;19;129511;-39
2022/09/10 07:46:55;;;;;;;;;;;;;;;24.21;59.88;99144.31;7315693;19;129130;-42
2022/09/10 07:49:21;;;;;;;;;;;;;;;24.28;59.85;99145.28;7311591;19;129228;-39
2022/09/10 07:51:46;;;;;;;;;;;;;;;24.29;58.95;99146.94;7314454;19;129419;-40
2022/09/10 07:54:14;;;;;;;;;;;;;;;24.28;58.70;99145.28;7313759;19;129319;-38
2022/09/10 07:56:39;;;;;;;;;;;;;;;24.17;58.69;99137.78;7312026;19;129282;-37
2022/09/10 07:59:04;;;;;;;;;;;;;;;24.24;59.37;99154.50;7312006;19;130200;-37
2022/09/10 08:01:30;;;;;;;;;;;;;;;24.17;57.95;99148.28;7312926;19;130567;-36
2022/09/10 08:03:57;;;;;;;;;;;;;;;24.22;58.62;99155.66;7311408;19;129813;-38
2022/09/10 08:06:22;;;;;;;;;;;;;;;24.29;58.35;99161.88;7311093;19;129188;-37
2022/09/10 08:08:48;;;;;;;;;;;;;;;24.29;58.30;99160.09;7310474;19;128854;-37
2022/09/10 08:11:16;;;;;;;;;;;;;;;24.19;58.13;99141.06;7313594;19;129618;-37
2022/09/10 08:13:44;;;;;;;;;;;;;;;24.31;58.29;99158.09;7312575;19;130939;-37
2022/09/10 08:16:11;;;;;;;;;;;;;;;24.30;58.07;99168.75;7309985;19;128906;-37
2022/09/10 08:18:36;;;;;;;;;;;;;;;24.33;58.53;99164.00;7311501;19;129989;-37
2022/09/10 08:21:02;;;;;;;;;;;;;;;24.29;58.57;99162.72;7313432;19;130949;-37
2022/09/10 08:23:28;;;;;;;;;;;;;;;24.34;58.44;99162.19;7313149;19;131250;-37
2022/09/10 08:25:53;;;;;;;;;;;;;;;24.32;58.73;99161.53;7312252;19;129075;-37
2022/09/10 08:28:19;;;;;;;;;;;;;;;24.25;57.92;99152.69;7314272;19;130340;-37
2022/09/10 08:30:56;;;;;;;;;;;;;;;24.32;58.34;99162.38;7313724;19;130136;-37
2022/09/10 08:33:22;;;;;;;;;;;;;;;24.32;58.25;99162.38;7310873;19;129235;-37
2022/09/10 08:35:51;;;;;;;;;;;;;;;24.30;58.62;99160.88;7314146;19;128939;-37
2022/09/10 08:38:17;;;;;;;;;;;;;;;24.17;58.11;99147.44;7312375;19;130129;-37
2022/09/10 08:40:42;;;;;;;;;;;;;;;24.28;57.63;99166.31;7313924;19;130057;-37
2022/09/10 08:43:08;;;;;;;;;;;;;;;24.20;58.00;99147.94;7313703;19;130325;-38
2022/09/10 08:45:33;;;;;;;;;;;;;;;24.25;57.89;99166.66;7313498;19;129015;-37
2022/09/10 08:48:02;;;;;;;;;;;;;;;24.24;57.78;99164.19;7315307;19;129402;-37
2022/09/10 08:50:39;;;;;;;;;;;;;;;24.22;58.88;99166.16;7312858;19;129199;-37
2022/09/10 08:53:13;;;;;;;;;;;;;;;24.18;58.53;99155.16;7311143;19;129541;-37
2022/09/10 08:55:40;;;;;;;;;;;;;;;24.19;58.47;99159.44;7313230;19;129270;-37
2022/09/10 08:58:17;;;;;;;;;;;;;;;24.22;58.38;99161.72;7312900;19;129133;-37
2022/09/10 09:00:44;;;;;;;;;;;;;;;24.19;57.90;99162.06;7311600;19;129771;-37
2022/09/10 09:03:28;;;;;;;;;;;;;;;24.20;58.54;99163.69;7313265;19;130362;-37
2022/09/10 09:05:56;;;;;;;;;;;;;;;24.18;58.31;99165.66;7313654;19;130270;-37
2022/09/10 09:08:40;;;;;;;;;;;;;;;24.20;58.66;99168.13;7311326;19;129293;-37
2022/09/10 09:11:11;;;;;;;;;;;;;;;24.21;58.28;99164.53;7313416;19;131144;-37
2022/09/10 09:13:46;;;;;;;;;;;;;;;24.21;58.74;99165.31;7311980;19;130995;-38
2022/09/10 09:16:31;;;;;;;;;;;;;;;24.15;58.66;99168.63;7313806;19;129093;-37
2022/09/10 09:19:05;;;;;;;;;;;;;;;24.13;57.87;99165.34;7309786;19;131377;-37
2022/09/10 09:21:34;;;;;;;;;;;;;;;24.16;58.42;99172.88;7313147;19;130157;-37
2022/09/10 09:24:02;;;;;;;;;;;;;;;24.16;57.87;99170.25;7313005;19;129643;-37
2022/09/10 09:26:32;;;;;;;;;;;;;;;24.17;58.10;99169.28;7311439;19;128997;-37
2022/09/10 09:29:13;;;;;;;;;;;;;;;24.14;58.24;99169.63;7311287;19;129108;-37
2022/09/10 09:31:46;;;;;;;;;;;;;;;24.16;58.29;99167.63;7311724;19;130064;-38
2022/09/10 09:34:18;;;;;;;;;;;;;;;24.16;58.34;99170.25;7311795;19;129957;-37
2022/09/10 09:36:47;;;;;;;;;;;;;;;24.14;58.37;99167.00;7312039;19;129809;-37
2022/09/10 09:39:19;;;;;;;;;;;;;;;24.07;58.47;99146.81;7310200;19;129636;-37
2022/09/10 09:42:01;;;;;;;;;;;;;;;24.15;58.41;99162.53;7312165;19;130064;-38
2022/09/10 09:44:39;;;;;;;;;;;;;;;24.14;57.58;99159.13;7312635;19;130447;-37
2022/09/10 09:47:06;;;;;;;;;;;;;;;24.13;58.07;99157.47;7312323;19;129021;-37
2022/09/10 09:49:31;;;;;;;;;;;;;;;24.13;57.76;99154.84;7310281;19;129149;-37
2022/09/10 09:51:57;;;;;;;;;;;;;;;24.10;57.91;99156.97;7309943;19;129459;-37
2022/09/10 09:54:25;;;;;;;;;;;;;;;24.03;57.96;99141.06;7307685;19;131245;-37
2022/09/10 09:56:53;;;;;;;;;;;;;;;24.12;58.37;99142.69;7308816;19;129918;-37
2022/09/10 09:59:26;;;;;;;;;;;;;;;24.15;58.33;99155.50;7310563;19;129530;-38
2022/09/10 10:01:53;;;;;;;;;;;;;;;24.18;58.23;99152.53;7310094;19;129990;-37
2022/09/10 10:04:23;;;;;;;;;;;;;;;24.18;58.40;99147.28;7311073;19;130272;-37
2022/09/10 10:06:53;;;;;;;;;;;;;;;24.16;58.86;99141.38;7309930;19;129151;-37
2022/09/10 10:09:20;;;;;;;;;;;;;;;24.19;58.80;99142.84;7312577;19;129548;-37
2022/09/10 10:11:50;;;;;;;;;;;;;;;24.19;58.96;99145.47;7315905;19;129891;-37
2022/09/10 10:14:19;;;;;;;;;;;;;;;24.17;59.10;99135.16;7313904;19;130461;-37
2022/09/10 10:16:47;;;;;;;;;;;;;;;24.20;58.29;99134.81;7316583;19;129320;-37
2022/09/10 10:19:32;;;;;;;;;;;;;;;24.17;59.22;99137.78;7316361;19;129081;-37
2022/09/10 10:22:21;;;;;;;;;;;;;;;24.19;58.26;99135.81;7314465;19;130039;-37
2022/09/10 10:24:47;;;;;;;;;;;;;;;24.20;58.22;99132.19;7317847;19;130442;-37
2022/09/10 10:27:15;;;;;;;;;;;;;;;24.22;58.63;99132.84;7317518;19;129208;-37
2022/09/10 10:29:40;;;;;;;;;;;;;;;24.22;58.49;99129.38;7315132;19;130771;-37
2022/09/10 10:32:14;;;;;;;;;;;;;;;24.13;58.79;99112.81;7315302;19;130088;-37
2022/09/10 10:34:39;;;;;;;;;;;;;;;24.23;58.29;99121.31;7314596;19;130431;-37
2022/09/10 10:37:07;;;;;;;;;;;;;;;24.15;58.85;99113.47;7318086;19;130401;-37
2022/09/10 10:39:48;;;;;;;;;;;;;;;24.18;58.76;99118.38;7314241;19;129266;-37
2022/09/10 10:42:14;;;;;;;;;;;;;;;24.17;57.92;99124.63;7315108;19;131337;-37
2022/09/10 10:44:59;;;;;;;;;;;;;;;24.21;58.41;99133.81;7315513;19;130336;-37
2022/09/10 10:47:34;;;;;;;;;;;;;;;24.21;58.25;99130.38;7316942;19;129653;-38
2022/09/10 10:50:11;;;;;;;;;;;;;;;24.22;58.37;99124.94;7315289;19;129707;-37
2022/09/10 10:52:52;;;;;;;;;;;;;;;24.20;58.41;99126.91;7315010;19;130725;-37
2022/09/10 10:55:23;;;;;;;;;;;;;;;24.20;58.50;99123.47;7316928;19;130645;-37
2022/09/10 10:58:00;;;;;;;;;;;;;;;24.20;59.33;99121.66;7316587;19;128992;-37
2022/09/10 11:00:27;;;;;;;;;;;;;;;24.22;59.29;99124.94;7318362;19;129257;-38
2022/09/10 11:03:02;;;;;;;;;;;;;;;24.18;58.32;99110.50;7316060;19;130447;-37
2022/09/10 11:05:37;;;;;;;;;;;;;;;24.24;59.35;99103.75;7316318;19;129525;-37
2022/09/10 11:08:26;;;;;;;;;;;;;;;24.24;58.73;99111.66;7312357;19;129488;-37
2022/09/10 11:10:52;;;;;;;;;;;;;;;24.15;58.97;99081.13;7315720;19;128973;-37
2022/09/10 11:13:24;;;;;;;;;;;;;;;24.25;58.65;99106.22;7311903;19;130120;-38
2022/09/10 11:15:58;;;;;;;;;;;;;;;24.21;59.35;99102.28;7315366;19;129576;-37
2022/09/10 11:18:30;;;;;;;;;;;;;;;24.26;59.22;99099.97;7314577;19;129665;-37
2022/09/10 11:21:05;;;;;;;;;;;;;;;24.23;58.34;99102.94;7315847;19;129058;-37
2022/09/10 11:23:37;;;;;;;;;;;;;;;24.24;58.34;99107.22;7314842;19;130119;-37
2022/09/10 11:26:18;;;;;;;;;;;;;;;24.21;58.54;99096.22;7317042;19;131109;-37
2022/09/10 11:28:53;;;;;;;;;;;;;;;24.25;57.57;99097.50;7313036;19;129808;-37
2022/09/10 11:31:34;;;;;;;;;;;;;;;24.15;58.12;99083.75;7314451;19;129353;-37
2022/09/10 11:33:59;;;;;;;;;;;;;;;24.20;57.93;99094.56;7315947;19;130300;-38
2022/09/10 11:36:28;;;;;;;;;;;;;;;24.19;57.69;99088.53;7315592;19;130318;-38
2022/09/10 11:39:02;;;;;;;;;;;;;;;24.18;57.67;99086.88;7313273;19;130043;-38
2022/09/10 11:41:30;;;;;;;;;;;;;;;24.18;58.51;99092.13;7313020;19;129529;-38
2022/09/10 11:44:14;;;;;;;;;;;;;;;24.19;57.05;99090.31;7315303;19;131250;-38
2022/09/10 11:46:39;;;;;;;;;;;;;;;24.09;57.90;99066.88;7311904;19;129725;-37
2022/09/10 11:49:14;;;;;;;;;;;;;;;24.21;58.28;99083.88;7312143;19;129089;-37
2022/09/10 11:51:40;;;;;;;;;;;;;;;24.21;58.30;99078.63;7313098;19;128943;-37
2022/09/10 11:54:11;;;;;;;;;;;;;;;24.23;58.15;99067.97;7315799;19;129201;-37
2022/09/10 11:56:58;;;;;;;;;;;;;;;24.20;57.29;99066.50;7315038;19;130367;-38
2022/09/10 11:59:30;;;;;;;;;;;;;;;24.17;58.35;99066.84;7312862;19;129463;-38
2022/09/10 12:02:13;;;;;;;;;;;;;;;24.16;58.21;99059.94;7311669;19;129668;-37
2022/09/10 12:04:44;;;;;;;;;;;;;;;24.19;58.28;99058.78;7312383;19;129161;-37
2022/09/10 12:07:28;;;;;;;;;;;;;;;24.17;58.33;99063.41;7314054;19;129754;-37
2022/09/10 12:10:13;;;;;;;;;;;;;;;24.20;58.16;99069.13;7311960;19;129310;-37
2022/09/10 12:12:42;;;;;;;;;;;;;;;24.20;58.17;99071.75;7310928;19;131422;-38
2022/09/10 12:15:13;;;;;;;;;;;;;;;24.22;57.88;99061.06;7315884;19;129776;-37
2022/09/10 12:17:41;;;;;;;;;;;;;;;24.19;57.89;99057.00;7313115;19;130724;-37
2022/09/10 12:20:13;;;;;;;;;;;;;;;24.17;58.04;99061.59;7313654;19;130608;-37
2022/09/10 12:22:39;;;;;;;;;;;;;;;24.16;58.03;99059.94;7313439;19;129283;-36
2022/09/10 12:25:07;;;;;;;;;;;;;;;24.17;58.34;99066.03;7311951;19;131375;-36
2022/09/10 12:27:57;;;;;;;;;;;;;;;24.18;57.74;99059.78;7313512;19;130105;-37
2022/09/10 12:30:29;;;;;;;;;;;;;;;24.19;58.65;99067.50;7310516;19;129779;-37
2022/09/10 12:32:58;;;;;;;;;;;;;;;24.18;57.99;99062.41;7311858;19;129091;-37
2022/09/10 12:35:33;;;;;;;;;;;;;;;24.22;58.45;99066.34;7313424;19;130745;-37
2022/09/10 12:38:18;;;;;;;;;;;;;;;24.09;58.19;99050.28;7314183;19;130389;-37
2022/09/10 12:40:44;;;;;;;;;;;;;;;24.21;58.60;99062.88;7312075;19;129908;-37
2022/09/10 12:43:28;;;;;;;;;;;;;;;24.23;57.75;99066.16;7313731;19;130039;-37